Flight Track Log - Related Links

Times and Time Zones

All times are in EDT time to prevent confusion due to time zone crossing. See the DAL1462 flight status page for this flight to view local times or setup timezone preferences in your user account.

Time Position Orientation Groundspeed Altitude Reporting Facility
EDT Latitude Longitude Course Direction KTS MPH feet Rate Location/Type
Thu 01:34:21 PM 29.9908 -90.2558 49° Northeast 161 185 400  Level Houston Center
Thu 01:35:46 PM 29.9731 -90.1581 102° East 262 302 3,100 2,368 Climbing Houston Center
Thu 01:36:53 PM 30.0147 -90.0819 58° Northeast 303 349 6,400 2,884 Climbing Houston Center
Thu 01:37:55 PM 30.0822 -90.0239 37° Northeast 292 336 9,300 2,323 Climbing Houston Center
Thu 01:38:00 PM 30.2812 -89.8365 52° Northeast  Level FlightAware Approximate
Thu 01:38:57 PM 30.1539 -89.9611 37° Northeast 316 364 11,200  Level Houston Center
Thu 01:39:00 PM 30.3532 -89.7291 49° Northeast  Level FlightAware Approximate
Thu 01:39:59 PM 30.2361 -89.8861 38° Northeast 363 418 13,000  Level Houston Center
Thu 01:41:01 PM 30.3222 -89.8022 40° Northeast 407 468 15,200 2,419 Climbing Houston Center
Thu 01:42:03 PM 30.4267 -89.7019 40° Northeast 431 496 18,000 2,448 Climbing Houston Center
Thu 01:43:06 PM 30.5175 -89.6103 41° Northeast 432 497 20,300 1,968 Climbing Houston Center
Thu 01:44:08 PM 30.6003 -89.5036 48° Northeast 448 516 22,100 1,774 Climbing Houston Center
Thu 01:46:12 PM 30.7456 -89.2069 60° Northeast 487 560 25,800 1,613 Climbing Houston Center
Thu 01:47:14 PM 30.8111 -89.0722 60° Northeast 481 554 27,100 1,355 Climbing Houston Center
Thu 01:48:16 PM 30.8844 -88.9228 60° Northeast 492 566 28,600 919 Climbing Houston Center
Thu 01:49:18 PM 30.9519 -88.7828 61° Northeast 497 572 29,000 192 Climbing Houston Center
Thu 01:50:21 PM 31.0211 -88.6422 60° Northeast 498 573 29,000  Level Houston Center
Thu 01:51:23 PM 31.0983 -88.4892 59° Northeast 493 567 29,000  Level Houston Center
Thu 01:52:25 PM 31.1775 -88.3592 55° Northeast 492 566 29,000  Level Houston Center
Thu 01:53:27 PM 31.2522 -88.2383 54° Northeast 491 565 29,000  Level Houston Center
Thu 01:53:58 PM 31.3067 -88.1556 52° Northeast 495 570 29,000  Level Atlanta Center
Thu 01:54:29 PM 31.3328 -88.1072 58° Northeast 492 566 29,000  Level Houston Center
Thu 01:54:58 PM 31.3839 -88.0278 53° Northeast 484 557 29,000  Level Atlanta Center
Thu 01:55:58 PM 31.4653 -87.8975 54° Northeast 489 563 29,000  Level Atlanta Center
Thu 01:56:58 PM 31.5444 -87.7669 55° Northeast 489 563 29,000  Level Atlanta Center
Thu 01:57:58 PM 31.6233 -87.6361 55° Northeast 489 563 29,000  Level Atlanta Center
Thu 01:58:58 PM 31.7022 -87.5072 54° Northeast 489 563 29,000  Level Atlanta Center
Thu 01:59:58 PM 31.7786 -87.3808 55° Northeast 489 563 29,000  Level Atlanta Center
Thu 02:00:58 PM 31.8464 -87.2636 56° Northeast 481 554 29,000 -50 Level Atlanta Center
Thu 02:01:58 PM 31.9206 -87.1367 55° Northeast 475 547 28,900 -1,000 Descending Atlanta Center
Thu 02:02:58 PM 32.0011 -87.0072 54° Northeast 482 555 27,000 -1,650 Descending Atlanta Center
Thu 02:03:58 PM 32.0750 -86.8772 56° Northeast 482 555 25,600 -1,000 Descending Atlanta Center
Thu 02:04:58 PM 32.1531 -86.7472 55° Northeast 482 555 25,000 -350 Descending Atlanta Center
Thu 02:05:58 PM 32.2417 -86.6100 53° Northeast 482 555 24,900 -350 Descending Atlanta Center
Thu 02:06:58 PM 32.3194 -86.4819 54° Northeast 482 555 24,300 -450 Descending Atlanta Center
Thu 02:07:58 PM 32.3800 -86.3631 59° Northeast 482 555 24,000 -150 Descending Atlanta Center
Thu 02:08:58 PM 32.4492 -86.2369 57° Northeast 470 541 24,000  Level Atlanta Center
Thu 02:09:58 PM 32.5414 -86.0961 52° Northeast 470 541 24,000  Level Atlanta Center
Thu 02:10:58 PM 32.6164 -85.9697 55° Northeast 475 547 24,000  Level Atlanta Center
Thu 02:11:58 PM 32.6936 -85.8431 54° Northeast 475 547 24,000  Level Atlanta Center
Thu 02:12:58 PM 32.7683 -85.7186 54° Northeast 470 541 24,000  Level Atlanta Center
Thu 02:13:58 PM 32.8453 -85.5917 54° Northeast 470 541 24,000 -100 Level Atlanta Center
Thu 02:14:58 PM 32.9219 -85.4667 54° Northeast 470 541 23,800 -1,500 Descending Atlanta Center
Thu 02:15:58 PM 32.9964 -85.3442 54° Northeast 470 541 21,000 -2,850 Descending Atlanta Center
Thu 02:16:58 PM 33.0664 -85.2261 55° Northeast 459 528 18,100 -2,650 Descending Atlanta Center
Thu 02:17:58 PM 33.1364 -85.1131 54° Northeast 435 501 15,700 -2,050 Descending Atlanta Center
Thu 02:18:58 PM 33.2039 -85.0022 54° Northeast 421 484 14,000 -850 Descending Atlanta Center
Thu 02:19:58 PM 33.2797 -84.9036 47° Northeast 401 461 14,000 -900 Level Atlanta Center
Thu 02:20:58 PM 33.3556 -84.8022 48° Northeast 401 461 12,200 -1,000 Descending Atlanta Center
Thu 02:21:58 PM 33.4272 -84.7058 48° Northeast 396 456 12,000 -100 Descending Atlanta Center
Thu 02:22:58 PM 33.4967 -84.6117 48° Northeast 386 444 12,000 -150 Level Atlanta Center
Thu 02:23:58 PM 33.5428 -84.5297 56° Northeast 334 384 11,700 -1,100 Descending Atlanta Center
Thu 02:24:58 PM 33.5453 -84.4400 88° East 271 312 9,800 -2,200 Descending Atlanta Center
Thu 02:25:58 PM 33.5456 -84.3578 90° East 253 291 7,300 -2,500 Descending Atlanta Center

Login

Don't have an account? Register now (free) for customized features, flight alerts, and more!